12N

Aeroflex-Andover Airport

Andover, New Jersey, USA
METAR K12N 212254Z AUTO VRB03KT 19/16 A3000 RMK AO1 SLP154 P0001 T01940161
Observed Flight Rules
Jul-21 @ 22:54 UTC (22 minutes ago)
Wind
Variable at 3 knots
Temperatures Readings Precipitation
Current 19°C / 66°F
Dewpoint 16°C / 61°F
Humidity 83%
Altimeter 30" Hg
Pressure 1015.4 hPa
Elevation 177
Current Rain 0.01
METAR K12N 212254Z AUTO VRB03KT 19/16 A3000 RMK AO1 SLP154 P0001 T01940161
Observed Flight Rules
Jul-21 @ 22:54 UTC
(22 minutes ago)
Wind
Variable at 3 knots
Temperature Dewpoint
19°C / 66°F 16°C / 61°F
Humidity Altimeter Pressure
83% 30" Hg 1015.4 hPa
Current Rain
0.01